Aérodrome :
LOGIN :

S'inscrire | Disclaimer

   EN    FR    IT 

 










Légende :    VFR   VFR Marginal   IFR   IFR Intensif   IFR Très Intensif
Visi : 
Plafond : 
>= 8 km
>= 3000ft
5 à 8 km
1000 à 3000 ft
1500m à 5 km
500 à 1000 ft
800 à 1500m
200 à 500 ft
< 800m
< 200 ft
Symboles :   Orages  Brouillard  Fortes neiges  Fortes précipitations  Vent > 20 kt
SIGMETs :   Divers  Orages  Givrage  Turbulence  Onde Orograph.  Cendres Volcan.







- Altitude de l'aérodrome : 122 ft
- Code IATA : TXL


EDDT - Berlin Tegel Int.

DERNIER METAR :
  • 241250Z 33005KT 280V010 9999 FEW032 SCT035CB SCT086 09/06 Q1025 TEMPO 33020G30KT

METARs EXPIRÉS :
  • 241220Z 34013G25KT 270V050 9999 -SHRA FEW033 BKN038CB 09/04 Q1025 TEMPO 30020G35KT SHRA
  • 241150Z 31012KT 270V030 9999 -SHRA BKN029CB 12/02 Q1024 TEMPO 30025G40KT TSRA
  • 241120Z 28019G29KT 250V310 9999 VCTS SCT030CB 13/03 Q1023 TEMPO 28025G40KT TSRA
  • 241050Z 28017KT 250V310 9999 BKN033CB 13/05 Q1023 TEMPO 28020G40KT SHRA
  • 241020Z 29015KT 270V340 9999 BKN033 12/05 Q1023 TEMPO 29015G30KT

TAF TAF EDDT
Valide du 24 à 12h jusqu'au 25 à 12h UTC


241100Z 2412/2512 29020G30KT 9999 FEW040
PROB30
TEMPO 2412/2415 29025G40KT SHRA BKN020CB
BECMG 2414/2417 29015G25KT
BECMG 2417/2419 28010KT
PROB30
TEMPO 2504/2508 BKN008
Pas de NOTAMs connus pour ce terrain.



MET'MAP, la Météo Aéronautique d'un coup d'oeil ! - Copyright ORBIFLY Décembre 2007 - Disclaimer

ORBIFLY MET'MAP TEAM :

Programmation & Développement : Alexandra Zaïnal
Conception & Développement : Baudouin d'Aumeries
Co-Programmation & Développement : Marc-Olivier Méhu
Soutien technique & logistique : Manuel Goepfert

Contact : metmap@orbifly.com




SOURCES & CREDITS :

   NOAA